Disclaimer

Please do not use the information listed here in-flight or in-navigation, as they are not provided to us by the airports but are provided by volunteers, so they might be outdated.

Search


Regions


Airport information page

No radio frequency information is available.

Airport informations:
Latitude: 21° 57' 39.33" S
Longitude: 063° 39' 06.01" W
Elevation: 2116 feet - 645 meters
Operating hours: From sunrise to sunset (SR-SS)
Operating agency: Civil government, landing fees and diplomatic clearance may be required
Timezone: UTC-4
Fuel: Jet A1, without icing nhibitor.

Runway information:
02/20 - 6890 x 118 feet< - >2100 x 36 meters

Recent METARs:
SLYA 192300Z 00000KT 9999 FEW023 SCT070 22/18 Q1019
SLYA 192300Z 00000KT 9999 FEW023 SCT070 22/18 Q1019
SLYA 192300Z 00000KT 9999 FEW023 SCT070 22/18 Q1019

Airport on the map: